sensor_id;sensor_type;location;lat;lon;timestamp;pressure;altitude;pressure_sealevel;temperature;humidity
39141;BME280;24875;48.436;10.298;2023-05-10T00:00:22;95626.63;;;15.24;100.00
39141;BME280;24875;48.436;10.298;2023-05-10T00:02:49;95630.66;;;15.26;100.00
39141;BME280;24875;48.436;10.298;2023-05-10T00:05:15;95623.22;;;15.34;100.00
39141;BME280;24875;48.436;10.298;2023-05-10T00:07:43;95625.66;;;15.36;100.00
39141;BME280;24875;48.436;10.298;2023-05-10T00:10:10;95619.00;;;15.27;100.00
39141;BME280;24875;48.436;10.298;2023-05-10T00:12:37;95624.78;;;15.24;100.00
39141;BME280;24875;48.436;10.298;2023-05-10T00:15:04;95624.31;;;15.27;100.00
39141;BME280;24875;48.436;10.298;2023-05-10T00:17:31;95620.31;;;15.18;100.00
39141;BME280;24875;48.436;10.298;2023-05-10T00:19:57;95619.03;;;15.03;100.00
39141;BME280;24875;48.436;10.298;2023-05-10T00:22:24;95620.59;;;15.10;100.00
39141;BME280;24875;48.436;10.298;2023-05-10T00:24:52;95607.63;;;15.20;100.00
39141;BME280;24875;48.436;10.298;2023-05-10T00:27:18;95618.47;;;15.01;100.00
39141;BME280;24875;48.436;10.298;2023-05-10T00:29:45;95615.13;;;15.05;100.00
39141;BME280;24875;48.436;10.298;2023-05-10T00:32:11;95617.75;;;14.87;100.00
39141;BME280;24875;48.436;10.298;2023-05-10T00:34:39;95611.38;;;14.95;100.00
39141;BME280;24875;48.436;10.298;2023-05-10T00:37:05;95607.00;;;15.00;100.00
39141;BME280;24875;48.436;10.298;2023-05-10T00:39:32;95611.13;;;14.96;100.00
39141;BME280;24875;48.436;10.298;2023-05-10T00:42:00;95614.97;;;15.00;100.00
39141;BME280;24875;48.436;10.298;2023-05-10T00:44:26;95612.31;;;15.00;100.00
39141;BME280;24875;48.436;10.298;2023-05-10T00:46:53;95612.44;;;14.87;100.00
39141;BME280;24875;48.436;10.298;2023-05-10T00:49:20;95608.31;;;14.91;100.00
39141;BME280;24875;48.436;10.298;2023-05-10T00:51:47;95609.34;;;14.90;100.00
39141;BME280;24875;48.436;10.298;2023-05-10T00:54:14;95601.97;;;14.74;100.00
39141;BME280;24875;48.436;10.298;2023-05-10T00:56:42;95608.00;;;14.81;100.00
39141;BME280;24875;48.436;10.298;2023-05-10T00:59:15;95601.63;;;14.89;100.00
39141;BME280;24875;48.436;10.298;2023-05-10T01:01:43;95607.13;;;14.87;100.00
39141;BME280;24875;48.436;10.298;2023-05-10T01:04:10;95606.13;;;14.88;100.00
39141;BME280;24875;48.436;10.298;2023-05-10T01:06:37;95603.31;;;14.83;100.00
39141;BME280;24875;48.436;10.298;2023-05-10T01:09:04;95602.91;;;14.80;100.00
39141;BME280;24875;48.436;10.298;2023-05-10T01:11:31;95607.25;;;14.74;100.00
39141;BME280;24875;48.436;10.298;2023-05-10T01:13:58;95605.84;;;14.72;100.00
39141;BME280;24875;48.436;10.298;2023-05-10T01:16:26;95604.63;;;14.74;100.00
39141;BME280;24875;48.436;10.298;2023-05-10T01:18:53;95599.19;;;14.63;100.00
39141;BME280;24875;48.436;10.298;2023-05-10T01:21:27;95602.66;;;14.63;100.00
39141;BME280;24875;48.436;10.298;2023-05-10T01:24:13;95610.94;;;14.73;100.00
39141;BME280;24875;48.436;10.298;2023-05-10T01:27:17;95610.09;;;14.79;100.00
39141;BME280;24875;48.436;10.298;2023-05-10T01:30:08;95611.53;;;14.75;100.00
39141;BME280;24875;48.436;10.298;2023-05-10T01:32:50;95614.88;;;14.64;100.00
39141;BME280;24875;48.436;10.298;2023-05-10T01:35:23;95607.09;;;14.69;100.00
39141;BME280;24875;48.436;10.298;2023-05-10T01:38:01;95617.53;;;14.64;100.00
39141;BME280;24875;48.436;10.298;2023-05-10T01:40:35;95616.75;;;14.64;100.00
39141;BME280;24875;48.436;10.298;2023-05-10T01:43:04;95616.84;;;14.51;100.00
39141;BME280;24875;48.436;10.298;2023-05-10T01:45:37;95621.28;;;14.57;100.00
39141;BME280;24875;48.436;10.298;2023-05-10T01:48:08;95619.06;;;14.54;100.00
39141;BME280;24875;48.436;10.298;2023-05-10T01:50:37;95615.44;;;14.49;100.00
39141;BME280;24875;48.436;10.298;2023-05-10T01:53:07;95620.53;;;14.50;100.00
39141;BME280;24875;48.436;10.298;2023-05-10T01:55:35;95612.41;;;14.45;100.00
39141;BME280;24875;48.436;10.298;2023-05-10T01:58:09;95626.22;;;14.54;100.00
39141;BME280;24875;48.436;10.298;2023-05-10T02:00:37;95620.13;;;14.47;100.00
39141;BME280;24875;48.436;10.298;2023-05-10T02:03:08;95633.66;;;14.39;100.00
39141;BME280;24875;48.436;10.298;2023-05-10T02:05:36;95632.50;;;14.28;100.00
39141;BME280;24875;48.436;10.298;2023-05-10T02:08:06;95633.03;;;14.37;100.00
39141;BME280;24875;48.436;10.298;2023-05-10T02:10:34;95637.72;;;14.41;100.00
39141;BME280;24875;48.436;10.298;2023-05-10T02:13:02;95640.53;;;14.46;100.00
39141;BME280;24875;48.436;10.298;2023-05-10T02:15:29;95635.69;;;14.37;100.00
39141;BME280;24875;48.436;10.298;2023-05-10T02:17:58;95642.56;;;14.44;100.00
39141;BME280;24875;48.436;10.298;2023-05-10T02:20:27;95634.84;;;14.43;100.00
39141;BME280;24875;48.436;10.298;2023-05-10T02:22:56;95642.97;;;14.48;100.00
39141;BME280;24875;48.436;10.298;2023-05-10T02:25:24;95643.88;;;14.35;100.00
39141;BME280;24875;48.436;10.298;2023-05-10T02:27:53;95651.56;;;14.43;100.00
39141;BME280;24875;48.436;10.298;2023-05-10T02:30:21;95648.38;;;14.35;100.00
39141;BME280;24875;48.436;10.298;2023-05-10T02:32:49;95655.75;;;14.26;100.00
39141;BME280;24875;48.436;10.298;2023-05-10T02:35:16;95655.31;;;14.29;100.00
39141;BME280;24875;48.436;10.298;2023-05-10T02:37:45;95649.78;;;14.37;100.00
39141;BME280;24875;48.436;10.298;2023-05-10T02:40:14;95653.66;;;14.35;100.00
39141;BME280;24875;48.436;10.298;2023-05-10T02:42:42;95646.00;;;14.20;100.00
39141;BME280;24875;48.436;10.298;2023-05-10T02:45:12;95650.88;;;14.23;100.00
39141;BME280;24875;48.436;10.298;2023-05-10T02:47:39;95648.28;;;14.17;100.00
39141;BME280;24875;48.436;10.298;2023-05-10T02:50:07;95651.47;;;14.25;100.00
39141;BME280;24875;48.436;10.298;2023-05-10T02:52:39;95648.41;;;14.28;100.00
39141;BME280;24875;48.436;10.298;2023-05-10T02:55:09;95661.31;;;14.18;100.00
39141;BME280;24875;48.436;10.298;2023-05-10T02:57:41;95671.72;;;14.13;100.00
39141;BME280;24875;48.436;10.298;2023-05-10T03:00:10;95681.75;;;13.98;100.00
39141;BME280;24875;48.436;10.298;2023-05-10T03:02:36;95680.78;;;13.87;100.00
39141;BME280;24875;48.436;10.298;2023-05-10T03:05:03;95685.94;;;13.75;100.00
39141;BME280;24875;48.436;10.298;2023-05-10T03:07:30;95681.25;;;13.77;100.00
39141;BME280;24875;48.436;10.298;2023-05-10T03:09:56;95689.84;;;13.60;100.00
39141;BME280;24875;48.436;10.298;2023-05-10T03:12:37;95688.00;;;13.67;100.00
39141;BME280;24875;48.436;10.298;2023-05-10T03:15:12;95697.78;;;13.66;100.00
39141;BME280;24875;48.436;10.298;2023-05-10T03:17:46;95693.47;;;13.72;100.00
39141;BME280;24875;48.436;10.298;2023-05-10T03:20:21;95698.41;;;13.68;100.00
39141;BME280;24875;48.436;10.298;2023-05-10T03:22:53;95694.28;;;13.79;100.00
39141;BME280;24875;48.436;10.298;2023-05-10T03:25:21;95703.44;;;13.76;100.00
39141;BME280;24875;48.436;10.298;2023-05-10T03:27:51;95703.63;;;13.81;100.00
39141;BME280;24875;48.436;10.298;2023-05-10T03:30:18;95702.59;;;13.82;100.00
39141;BME280;24875;48.436;10.298;2023-05-10T03:32:45;95705.97;;;13.58;100.00
39141;BME280;24875;48.436;10.298;2023-05-10T03:35:12;95722.47;;;13.47;100.00
39141;BME280;24875;48.436;10.298;2023-05-10T03:37:39;95718.97;;;13.60;100.00
39141;BME280;24875;48.436;10.298;2023-05-10T03:40:06;95715.91;;;13.56;100.00
39141;BME280;24875;48.436;10.298;2023-05-10T03:42:33;95723.88;;;13.50;100.00
39141;BME280;24875;48.436;10.298;2023-05-10T03:45:01;95723.69;;;13.38;100.00
39141;BME280;24875;48.436;10.298;2023-05-10T03:47:28;95729.81;;;13.33;100.00
39141;BME280;24875;48.436;10.298;2023-05-10T03:49:54;95721.25;;;13.37;100.00
39141;BME280;24875;48.436;10.298;2023-05-10T03:52:21;95721.69;;;13.28;100.00
39141;BME280;24875;48.436;10.298;2023-05-10T03:54:47;95727.19;;;13.20;100.00
39141;BME280;24875;48.436;10.298;2023-05-10T03:57:14;95730.00;;;13.31;100.00
39141;BME280;24875;48.436;10.298;2023-05-10T03:59:40;95734.50;;;13.31;100.00
39141;BME280;24875;48.436;10.298;2023-05-10T04:02:08;95733.03;;;13.47;100.00
39141;BME280;24875;48.436;10.298;2023-05-10T04:04:34;95728.38;;;13.49;100.00
39141;BME280;24875;48.436;10.298;2023-05-10T04:07:01;95732.47;;;13.45;100.00
39141;BME280;24875;48.436;10.298;2023-05-10T04:09:28;95739.94;;;13.61;100.00
39141;BME280;24875;48.436;10.298;2023-05-10T04:11:54;95734.69;;;13.48;100.00
39141;BME280;24875;48.436;10.298;2023-05-10T04:14:20;95729.56;;;13.60;100.00
39141;BME280;24875;48.436;10.298;2023-05-10T04:16:47;95735.47;;;13.55;100.00
39141;BME280;24875;48.436;10.298;2023-05-10T04:19:15;95737.91;;;13.63;100.00
39141;BME280;24875;48.436;10.298;2023-05-10T04:21:41;95738.75;;;13.57;100.00
39141;BME280;24875;48.436;10.298;2023-05-10T04:24:08;95728.75;;;13.59;100.00
39141;BME280;24875;48.436;10.298;2023-05-10T04:26:34;95733.41;;;13.64;100.00
39141;BME280;24875;48.436;10.298;2023-05-10T04:29:01;95733.41;;;13.64;100.00
39141;BME280;24875;48.436;10.298;2023-05-10T04:31:27;95731.97;;;13.74;100.00
39141;BME280;24875;48.436;10.298;2023-05-10T04:33:54;95739.09;;;13.74;100.00
39141;BME280;24875;48.436;10.298;2023-05-10T04:36:22;95743.94;;;13.83;100.00
39141;BME280;24875;48.436;10.298;2023-05-10T04:38:48;95744.59;;;13.79;100.00
39141;BME280;24875;48.436;10.298;2023-05-10T04:41:14;95740.72;;;13.81;100.00
39141;BME280;24875;48.436;10.298;2023-05-10T04:43:41;95746.00;;;13.81;100.00
39141;BME280;24875;48.436;10.298;2023-05-10T04:46:07;95750.88;;;13.84;100.00
39141;BME280;24875;48.436;10.298;2023-05-10T04:48:34;95746.84;;;13.75;100.00
39141;BME280;24875;48.436;10.298;2023-05-10T04:51:00;95756.59;;;13.88;100.00
39141;BME280;24875;48.436;10.298;2023-05-10T04:53:30;95760.25;;;13.87;100.00
39141;BME280;24875;48.436;10.298;2023-05-10T04:55:56;95759.84;;;13.83;100.00
39141;BME280;24875;48.436;10.298;2023-05-10T04:58:23;95768.16;;;13.93;100.00
39141;BME280;24875;48.436;10.298;2023-05-10T05:00:49;95766.75;;;13.91;100.00
39141;BME280;24875;48.436;10.298;2023-05-10T05:03:16;95769.81;;;13.94;100.00
39141;BME280;24875;48.436;10.298;2023-05-10T05:05:43;95780.59;;;13.99;100.00
39141;BME280;24875;48.436;10.298;2023-05-10T05:08:10;95772.47;;;13.94;100.00
39141;BME280;24875;48.436;10.298;2023-05-10T05:10:38;95778.81;;;13.80;100.00
39141;BME280;24875;48.436;10.298;2023-05-10T05:13:04;95775.72;;;13.90;100.00
39141;BME280;24875;48.436;10.298;2023-05-10T05:15:30;95782.44;;;13.92;100.00
39141;BME280;24875;48.436;10.298;2023-05-10T05:17:57;95782.03;;;13.95;100.00
39141;BME280;24875;48.436;10.298;2023-05-10T05:20:23;95784.88;;;13.94;100.00
39141;BME280;24875;48.436;10.298;2023-05-10T05:22:50;95787.50;;;14.00;100.00
39141;BME280;24875;48.436;10.298;2023-05-10T05:25:16;95789.53;;;14.11;100.00
39141;BME280;24875;48.436;10.298;2023-05-10T05:27:44;95784.88;;;14.13;100.00
39141;BME280;24875;48.436;10.298;2023-05-10T05:30:11;95783.00;;;14.07;100.00
39141;BME280;24875;48.436;10.298;2023-05-10T05:32:37;95783.63;;;14.09;100.00
39141;BME280;24875;48.436;10.298;2023-05-10T05:35:04;95788.69;;;14.23;100.00
39141;BME280;24875;48.436;10.298;2023-05-10T05:37:31;95790.16;;;14.13;100.00
39141;BME280;24875;48.436;10.298;2023-05-10T05:39:57;95792.97;;;14.24;100.00
39141;BME280;24875;48.436;10.298;2023-05-10T05:42:26;95797.66;;;14.22;100.00
39141;BME280;24875;48.436;10.298;2023-05-10T05:44:54;95798.00;;;14.39;100.00
39141;BME280;24875;48.436;10.298;2023-05-10T05:47:20;95800.28;;;14.29;100.00
39141;BME280;24875;48.436;10.298;2023-05-10T05:49:47;95799.69;;;14.27;100.00
39141;BME280;24875;48.436;10.298;2023-05-10T05:52:13;95809.25;;;14.28;100.00
39141;BME280;24875;48.436;10.298;2023-05-10T05:54:39;95803.13;;;14.34;100.00
39141;BME280;24875;48.436;10.298;2023-05-10T05:57:06;95807.81;;;14.32;100.00
39141;BME280;24875;48.436;10.298;2023-05-10T05:59:32;95809.25;;;14.28;100.00
39141;BME280;24875;48.436;10.298;2023-05-10T06:02:00;95802.66;;;14.43;100.00
39141;BME280;24875;48.436;10.298;2023-05-10T06:04:27;95804.75;;;14.35;100.00
39141;BME280;24875;48.436;10.298;2023-05-10T06:06:53;95802.66;;;14.43;100.00
39141;BME280;24875;48.436;10.298;2023-05-10T06:09:19;95812.28;;;14.38;100.00
39141;BME280;24875;48.436;10.298;2023-05-10T06:11:46;95822.03;;;14.44;100.00
39141;BME280;24875;48.436;10.298;2023-05-10T06:14:12;95820.41;;;14.43;100.00
39141;BME280;24875;48.436;10.298;2023-05-10T06:16:39;95814.69;;;14.46;100.00
39141;BME280;24875;48.436;10.298;2023-05-10T06:19:07;95816.72;;;14.50;100.00
39141;BME280;24875;48.436;10.298;2023-05-10T06:21:33;95820.44;;;14.36;100.00
39141;BME280;24875;48.436;10.298;2023-05-10T06:23:59;95830.25;;;14.36;100.00
39141;BME280;24875;48.436;10.298;2023-05-10T06:26:26;95825.34;;;14.33;100.00
39141;BME280;24875;48.436;10.298;2023-05-10T06:28:52;95830.41;;;14.41;100.00
39141;BME280;24875;48.436;10.298;2023-05-10T06:31:19;95835.16;;;14.69;100.00
39141;BME280;24875;48.436;10.298;2023-05-10T06:33:46;95836.59;;;14.72;100.00
39141;BME280;24875;48.436;10.298;2023-05-10T06:36:13;95838.25;;;14.66;100.00
39141;BME280;24875;48.436;10.298;2023-05-10T06:38:40;95836.22;;;14.62;100.00
39141;BME280;24875;48.436;10.298;2023-05-10T06:41:06;95837.66;;;14.64;100.00
39141;BME280;24875;48.436;10.298;2023-05-10T06:43:33;95841.69;;;14.73;100.00
39141;BME280;24875;48.436;10.298;2023-05-10T06:45:59;95850.09;;;14.64;100.00
39141;BME280;24875;48.436;10.298;2023-05-10T06:48:26;95841.28;;;14.70;100.00
39141;BME280;24875;48.436;10.298;2023-05-10T06:50:53;95841.88;;;14.78;100.00
39141;BME280;24875;48.436;10.298;2023-05-10T06:53:21;95851.59;;;14.91;100.00
39141;BME280;24875;48.436;10.298;2023-05-10T06:55:48;95843.69;;;15.15;100.00
39141;BME280;24875;48.436;10.298;2023-05-10T06:58:15;95848.50;;;14.94;100.00
39141;BME280;24875;48.436;10.298;2023-05-10T07:00:41;95845.63;;;14.95;100.00
39141;BME280;24875;48.436;10.298;2023-05-10T07:03:08;95854.69;;;15.19;100.00
39141;BME280;24875;48.436;10.298;2023-05-10T07:05:35;95847.75;;;15.18;100.00
39141;BME280;24875;48.436;10.298;2023-05-10T07:08:01;95851.31;;;15.05;100.00
39141;BME280;24875;48.436;10.298;2023-05-10T07:10:29;95850.72;;;15.03;100.00
39141;BME280;24875;48.436;10.298;2023-05-10T07:12:56;95858.09;;;14.95;100.00
39141;BME280;24875;48.436;10.298;2023-05-10T07:15:22;95851.03;;;15.13;100.00
39141;BME280;24875;48.436;10.298;2023-05-10T07:17:49;95852.66;;;15.21;100.00
39141;BME280;24875;48.436;10.298;2023-05-10T07:20:17;95855.94;;;15.23;100.00
39141;BME280;24875;48.436;10.298;2023-05-10T07:22:43;95859.63;;;15.15;100.00
39141;BME280;24875;48.436;10.298;2023-05-10T07:25:10;95854.44;;;14.96;100.00
39141;BME280;24875;48.436;10.298;2023-05-10T07:27:38;95849.78;;;15.16;100.00
39141;BME280;24875;48.436;10.298;2023-05-10T07:30:05;95852.66;;;15.14;100.00
39141;BME280;24875;48.436;10.298;2023-05-10T07:32:32;95856.34;;;15.13;100.00
39141;BME280;24875;48.436;10.298;2023-05-10T07:34:58;95850.63;;;15.23;100.00
39141;BME280;24875;48.436;10.298;2023-05-10T07:37:25;95849.69;;;15.35;100.00
39141;BME280;24875;48.436;10.298;2023-05-10T07:39:51;95849.69;;;15.35;100.00
39141;BME280;24875;48.436;10.298;2023-05-10T07:42:18;95851.31;;;15.36;100.00
39141;BME280;24875;48.436;10.298;2023-05-10T07:44:46;95844.44;;;15.28;100.00
39141;BME280;24875;48.436;10.298;2023-05-10T07:47:12;95848.50;;;15.31;100.00
39141;BME280;24875;48.436;10.298;2023-05-10T07:49:38;95851.44;;;15.47;100.00
39141;BME280;24875;48.436;10.298;2023-05-10T07:52:05;95851.59;;;15.52;100.00
39141;BME280;24875;48.436;10.298;2023-05-10T07:54:31;95858.03;;;15.38;100.00
39141;BME280;24875;48.436;10.298;2023-05-10T07:56:59;95856.00;;;15.40;100.00
39141;BME280;24875;48.436;10.298;2023-05-10T07:59:26;95858.22;;;15.43;100.00
39141;BME280;24875;48.436;10.298;2023-05-10T08:01:53;95865.56;;;15.48;100.00
39141;BME280;24875;48.436;10.298;2023-05-10T08:04:20;95869.97;;;15.54;100.00
39141;BME280;24875;48.436;10.298;2023-05-10T08:06:47;95866.84;;;15.39;100.00
39141;BME280;24875;48.436;10.298;2023-05-10T08:09:13;95860.81;;;15.50;100.00
39141;BME280;24875;48.436;10.298;2023-05-10T08:11:40;95856.66;;;15.60;100.00
39141;BME280;24875;48.436;10.298;2023-05-10T08:14:06;95857.25;;;15.62;100.00
39141;BME280;24875;48.436;10.298;2023-05-10T08:16:33;95855.56;;;15.68;100.00
39141;BME280;24875;48.436;10.298;2023-05-10T08:19:01;95853.28;;;15.95;100.00
39141;BME280;24875;48.436;10.298;2023-05-10T08:21:28;95856.78;;;15.89;100.00
39141;BME280;24875;48.436;10.298;2023-05-10T08:23:54;95859.00;;;15.75;100.00
39141;BME280;24875;48.436;10.298;2023-05-10T08:26:21;95872.47;;;15.49;100.00
39141;BME280;24875;48.436;10.298;2023-05-10T08:28:47;95863.47;;;15.50;100.00
39141;BME280;24875;48.436;10.298;2023-05-10T08:31:14;95868.22;;;15.48;100.00
39141;BME280;24875;48.436;10.298;2023-05-10T08:33:41;95871.50;;;15.43;100.00
39141;BME280;24875;48.436;10.298;2023-05-10T08:36:09;95869.53;;;15.32;100.00
39141;BME280;24875;48.436;10.298;2023-05-10T08:38:35;95870.59;;;15.25;100.00
39141;BME280;24875;48.436;10.298;2023-05-10T08:41:04;95881.41;;;15.30;100.00
39141;BME280;24875;48.436;10.298;2023-05-10T08:43:31;95872.66;;;15.23;100.00
39141;BME280;24875;48.436;10.298;2023-05-10T08:46:00;95879.06;;;15.40;100.00
39141;BME280;24875;48.436;10.298;2023-05-10T08:48:29;95873.47;;;15.54;100.00
39141;BME280;24875;48.436;10.298;2023-05-10T08:50:58;95874.44;;;15.60;100.00
39141;BME280;24875;48.436;10.298;2023-05-10T08:53:26;95874.50;;;15.78;100.00
39141;BME280;24875;48.436;10.298;2023-05-10T08:55:54;95870.97;;;15.84;100.00
39141;BME280;24875;48.436;10.298;2023-05-10T08:58:21;95880.81;;;15.77;100.00
39141;BME280;24875;48.436;10.298;2023-05-10T09:00:49;95881.47;;;15.96;100.00
39141;BME280;24875;48.436;10.298;2023-05-10T09:03:16;95878.22;;;15.94;99.26
39141;BME280;24875;48.436;10.298;2023-05-10T09:05:43;95889.00;;;15.99;97.76
39141;BME280;24875;48.436;10.298;2023-05-10T09:08:11;95888.91;;;15.88;95.09
39141;BME280;24875;48.436;10.298;2023-05-10T09:10:39;95894.88;;;16.08;97.45
39141;BME280;24875;48.436;10.298;2023-05-10T09:13:10;95888.59;;;16.20;96.95
39141;BME280;24875;48.436;10.298;2023-05-10T09:15:37;95886.06;;;16.32;95.87
39141;BME280;24875;48.436;10.298;2023-05-10T09:18:03;95879.88;;;16.38;94.50
39141;BME280;24875;48.436;10.298;2023-05-10T09:20:30;95888.59;;;16.62;92.74
39141;BME280;24875;48.436;10.298;2023-05-10T09:22:56;95884.88;;;16.63;91.29
39141;BME280;24875;48.436;10.298;2023-05-10T09:25:23;95890.06;;;16.76;91.22
39141;BME280;24875;48.436;10.298;2023-05-10T09:27:52;95887.53;;;16.81;88.24
39141;BME280;24875;48.436;10.298;2023-05-10T09:30:24;95882.75;;;16.72;89.64
39141;BME280;24875;48.436;10.298;2023-05-10T09:32:51;95882.16;;;16.52;88.22
39141;BME280;24875;48.436;10.298;2023-05-10T09:35:19;95882.22;;;16.63;88.98
39141;BME280;24875;48.436;10.298;2023-05-10T09:37:48;95879.78;;;16.62;87.47
39141;BME280;24875;48.436;10.298;2023-05-10T09:40:16;95889.25;;;16.40;85.87
39141;BME280;24875;48.436;10.298;2023-05-10T09:42:53;95881.72;;;16.37;89.42
39141;BME280;24875;48.436;10.298;2023-05-10T09:45:21;95874.16;;;16.52;87.67
39141;BME280;24875;48.436;10.298;2023-05-10T09:47:48;95875.22;;;16.51;91.11
39141;BME280;24875;48.436;10.298;2023-05-10T09:50:14;95876.09;;;16.45;90.82
39141;BME280;24875;48.436;10.298;2023-05-10T09:52:49;95878.59;;;16.76;86.92
39141;BME280;24875;48.436;10.298;2023-05-10T09:55:16;95881.44;;;16.45;89.08
39141;BME280;24875;48.436;10.298;2023-05-10T09:57:43;95870.84;;;16.56;88.81
39141;BME280;24875;48.436;10.298;2023-05-10T10:00:16;95880.00;;;16.60;87.16
39141;BME280;24875;48.436;10.298;2023-05-10T10:02:45;95878.03;;;16.74;85.22
39141;BME280;24875;48.436;10.298;2023-05-10T10:05:11;95890.50;;;16.73;80.81
39141;BME280;24875;48.436;10.298;2023-05-10T10:07:38;95879.59;;;16.93;82.60
39141;BME280;24875;48.436;10.298;2023-05-10T10:10:07;95872.31;;;16.88;77.60
39141;BME280;24875;48.436;10.298;2023-05-10T10:12:36;95875.78;;;17.18;80.24
39141;BME280;24875;48.436;10.298;2023-05-10T10:15:04;95877.50;;;17.12;78.80
39141;BME280;24875;48.436;10.298;2023-05-10T10:17:35;95870.28;;;17.02;78.69
39141;BME280;24875;48.436;10.298;2023-05-10T10:20:03;95878.53;;;17.11;79.12
39141;BME280;24875;48.436;10.298;2023-05-10T10:22:30;95883.03;;;16.82;76.32
39141;BME280;24875;48.436;10.298;2023-05-10T10:24:56;95876.00;;;16.87;77.79
39141;BME280;24875;48.436;10.298;2023-05-10T10:27:24;95879.63;;;17.22;80.24
39141;BME280;24875;48.436;10.298;2023-05-10T10:30:00;95883.69;;;17.54;78.57
39141;BME280;24875;48.436;10.298;2023-05-10T10:32:38;95878.09;;;17.32;78.71
39141;BME280;24875;48.436;10.298;2023-05-10T10:35:08;95879.53;;;16.99;77.19
39141;BME280;24875;48.436;10.298;2023-05-10T10:37:43;95881.16;;;17.00;76.99
39141;BME280;24875;48.436;10.298;2023-05-10T10:40:23;95877.19;;;17.20;77.80
39141;BME280;24875;48.436;10.298;2023-05-10T10:42:49;95882.09;;;17.23;77.60
39141;BME280;24875;48.436;10.298;2023-05-10T10:45:16;95882.25;;;17.40;76.06
39141;BME280;24875;48.436;10.298;2023-05-10T10:47:44;95878.97;;;17.67;77.90
39141;BME280;24875;48.436;10.298;2023-05-10T10:50:11;95875.22;;;17.45;74.28
39141;BME280;24875;48.436;10.298;2023-05-10T10:52:39;95875.66;;;17.42;76.73
39141;BME280;24875;48.436;10.298;2023-05-10T10:55:08;95882.72;;;17.37;75.02
39141;BME280;24875;48.436;10.298;2023-05-10T10:57:47;95878.31;;;17.42;75.69
39141;BME280;24875;48.436;10.298;2023-05-10T11:00:19;95876.66;;;17.59;75.90
39141;BME280;24875;48.436;10.298;2023-05-10T11:02:49;95881.41;;;17.28;73.45
39141;BME280;24875;48.436;10.298;2023-05-10T11:05:43;95882.69;;;17.25;75.77
39141;BME280;24875;48.436;10.298;2023-05-10T11:08:13;95880.63;;;17.27;75.75
39141;BME280;24875;48.436;10.298;2023-05-10T11:10:48;95883.06;;;17.11;77.18
39141;BME280;24875;48.436;10.298;2023-05-10T11:13:27;95890.22;;;17.28;75.48
39141;BME280;24875;48.436;10.298;2023-05-10T11:15:57;95884.22;;;17.15;75.21
39141;BME280;24875;48.436;10.298;2023-05-10T11:18:26;95892.72;;;17.23;77.18
39141;BME280;24875;48.436;10.298;2023-05-10T11:20:57;95878.81;;;17.51;77.21
39141;BME280;24875;48.436;10.298;2023-05-10T11:23:30;95887.25;;;17.77;77.56
39141;BME280;24875;48.436;10.298;2023-05-10T11:25:57;95887.53;;;17.28;76.09
39141;BME280;24875;48.436;10.298;2023-05-10T11:28:25;95888.03;;;17.37;75.13
39141;BME280;24875;48.436;10.298;2023-05-10T11:30:52;95883.31;;;17.39;75.39
39141;BME280;24875;48.436;10.298;2023-05-10T11:33:19;95884.38;;;17.49;73.67
39141;BME280;24875;48.436;10.298;2023-05-10T11:35:47;95885.38;;;17.89;74.66
39141;BME280;24875;48.436;10.298;2023-05-10T11:38:13;95872.06;;;17.89;74.55
39141;BME280;24875;48.436;10.298;2023-05-10T11:40:41;95877.25;;;17.84;72.76
39141;BME280;24875;48.436;10.298;2023-05-10T11:43:08;95881.56;;;17.85;74.79
39141;BME280;24875;48.436;10.298;2023-05-10T11:45:36;95884.59;;;17.88;72.67
39141;BME280;24875;48.436;10.298;2023-05-10T11:48:03;95884.09;;;17.80;70.26
39141;BME280;24875;48.436;10.298;2023-05-10T11:50:30;95886.06;;;17.62;73.87
39141;BME280;24875;48.436;10.298;2023-05-10T11:52:58;95884.91;;;17.80;73.94
39141;BME280;24875;48.436;10.298;2023-05-10T11:55:24;95890.69;;;17.66;74.09
39141;BME280;24875;48.436;10.298;2023-05-10T11:57:52;95889.44;;;17.91;75.38
39141;BME280;24875;48.436;10.298;2023-05-10T12:00:19;95895.34;;;17.71;72.50
39141;BME280;24875;48.436;10.298;2023-05-10T12:02:46;95894.63;;;17.75;74.20
39141;BME280;24875;48.436;10.298;2023-05-10T12:05:13;95893.13;;;17.68;74.61
39141;BME280;24875;48.436;10.298;2023-05-10T12:07:39;95897.91;;;17.77;74.33
39141;BME280;24875;48.436;10.298;2023-05-10T12:10:08;95899.94;;;17.64;74.64
39141;BME280;24875;48.436;10.298;2023-05-10T12:12:39;95897.97;;;17.59;74.78
39141;BME280;24875;48.436;10.298;2023-05-10T12:15:10;95897.53;;;17.33;76.61
39141;BME280;24875;48.436;10.298;2023-05-10T12:17:38;95903.28;;;17.01;75.79
39141;BME280;24875;48.436;10.298;2023-05-10T12:20:15;95898.03;;;17.41;77.05
39141;BME280;24875;48.436;10.298;2023-05-10T12:22:44;95910.22;;;17.02;75.15
39141;BME280;24875;48.436;10.298;2023-05-10T12:25:12;95903.47;;;16.99;75.77
39141;BME280;24875;48.436;10.298;2023-05-10T12:27:39;95908.75;;;16.88;78.16
39141;BME280;24875;48.436;10.298;2023-05-10T12:30:06;95902.44;;;17.00;80.25
39141;BME280;24875;48.436;10.298;2023-05-10T12:32:39;95910.84;;;16.68;83.01
39141;BME280;24875;48.436;10.298;2023-05-10T12:35:07;95912.72;;;16.43;82.14
39141;BME280;24875;48.436;10.298;2023-05-10T12:37:34;95914.44;;;16.38;79.42
39141;BME280;24875;48.436;10.298;2023-05-10T12:40:06;95912.81;;;16.37;78.38
39141;BME280;24875;48.436;10.298;2023-05-10T12:42:34;95913.75;;;16.24;80.37
39141;BME280;24875;48.436;10.298;2023-05-10T12:45:02;95913.84;;;16.11;76.28
39141;BME280;24875;48.436;10.298;2023-05-10T12:47:28;95914.41;;;15.95;80.44